Satsuma, Florida
Current Conditions -  °F | °C
As of 1:35 PM on Sunday 23 Nov 2014 (Local Time) from K28J Reporting Station
Overcast Overcast  
Wind Chill: 82°   Ceiling: 4100
Heat Index: 87°   Visibility: 10mi
Dew Point: 72°   Wind: 14mph
Humidity: 70%   Direction: 190°S
Pressure: 29.88"   Gusts: NA
Location:  29.56°N, 81.66°W
Report Text: K28J 231835Z AUTO 19012KT 10SM SCT027 OVC041 28/22 A2988 RMK AO2
Loading
Personal Weather Stations






























Interactive Weather Map New forecast layout! Learn more

10-Day Weather Forecast

Advertisements
Track Severe Weather on mobile